createdAt,value
2019-01-24T00:01:29.758Z,1.43
2019-01-24T00:03:59.707Z,2.80
2019-01-24T00:06:29.638Z,2.00
2019-01-24T00:08:59.594Z,1.93
2019-01-24T00:11:29.678Z,1.17
2019-01-24T00:13:59.634Z,0.90
2019-01-24T00:16:29.590Z,0.70
2019-01-24T00:18:59.522Z,2.80
2019-01-24T00:21:29.521Z,2.50
2019-01-24T00:23:59.464Z,1.93
2019-01-24T00:26:29.446Z,2.40
2019-01-24T00:28:59.412Z,3.17
2019-01-24T00:31:29.375Z,1.30
2019-01-24T00:33:59.526Z,1.50
2019-01-24T00:36:29.491Z,2.37
2019-01-24T00:38:59.444Z,2.47
2019-01-24T00:41:29.450Z,1.90
2019-01-24T00:43:59.395Z,1.10
2019-01-24T00:46:29.333Z,1.30
2019-01-24T00:48:59.592Z,0.80
2019-01-24T00:51:29.583Z,1.07
2019-01-24T00:53:59.525Z,1.20
2019-01-24T00:56:29.534Z,1.10
2019-01-24T00:58:59.867Z,1.33
2019-01-24T01:01:29.898Z,0.97
2019-01-24T01:03:59.956Z,1.03
2019-01-24T01:06:29.969Z,1.40
2019-01-24T01:08:59.915Z,1.23
2019-01-24T01:11:29.923Z,1.40
2019-01-24T01:14:00.242Z,1.03
2019-01-24T01:16:30.239Z,0.77
2019-01-24T01:19:00.154Z,0.90
2019-01-24T01:21:30.063Z,1.00
2019-01-24T01:24:00.387Z,0.97
2019-01-24T01:26:30.380Z,1.10
2019-01-24T01:29:00.290Z,1.30
2019-01-24T01:31:30.233Z,1.63
2019-01-24T01:34:00.204Z,1.30
2019-01-24T01:36:30.088Z,1.20
2019-01-24T01:38:59.992Z,1.40
2019-01-24T01:41:29.918Z,1.00
2019-01-24T01:44:00.010Z,0.90
2019-01-24T01:46:29.890Z,1.27
2019-01-24T01:48:59.858Z,1.07
2019-01-24T01:51:29.771Z,0.90
2019-01-24T01:53:59.729Z,0.80
2019-01-24T01:56:29.626Z,0.80
2019-01-24T01:58:59.551Z,1.57
2019-01-24T02:01:29.470Z,1.10
2019-01-24T02:03:59.412Z,0.90
2019-01-24T02:06:29.327Z,0.70
2019-01-24T02:08:59.322Z,1.00
2019-01-24T02:11:29.329Z,0.80
2019-01-24T02:13:59.297Z,0.90
2019-01-24T02:16:29.365Z,1.07
2019-01-24T02:18:59.442Z,0.80
2019-01-24T02:21:29.962Z,0.93
2019-01-24T02:23:59.879Z,1.30
2019-01-24T02:26:29.815Z,0.83
2019-01-24T02:28:59.767Z,1.30
2019-01-24T02:31:29.683Z,0.93
2019-01-24T02:33:59.839Z,1.20
2019-01-24T02:36:29.774Z,1.43
2019-01-24T02:38:59.655Z,0.83
2019-01-24T02:41:29.582Z,0.67
2019-01-24T02:43:59.478Z,0.63
2019-01-24T02:46:29.411Z,0.70
2019-01-24T02:48:59.335Z,0.80
2019-01-24T02:51:29.239Z,1.70
2019-01-24T02:53:59.122Z,2.50
2019-01-24T02:56:29.155Z,2.10
2019-01-24T02:58:59.051Z,1.90
2019-01-24T03:01:29.098Z,2.07
2019-01-24T03:03:59.021Z,1.70
2019-01-24T03:06:29.034Z,2.10
2019-01-24T03:08:59.021Z,2.77
2019-01-24T03:11:28.948Z,2.70
2019-01-24T03:13:58.873Z,2.80
2019-01-24T03:16:28.942Z,3.07
2019-01-24T03:18:58.971Z,2.20
2019-01-24T03:21:28.921Z,2.60
2019-01-24T03:23:58.946Z,2.47
2019-01-24T03:26:28.871Z,2.37
2019-01-24T03:28:58.770Z,1.97
2019-01-24T03:31:28.743Z,2.37
2019-01-24T03:33:58.704Z,2.60
2019-01-24T03:36:28.658Z,2.43
2019-01-24T03:38:58.594Z,2.87
2019-01-24T03:41:28.608Z,2.40
2019-01-24T03:43:58.497Z,2.10
2019-01-24T03:46:28.428Z,2.03
2019-01-24T03:48:58.451Z,1.63
2019-01-24T03:51:28.387Z,1.47
2019-01-24T03:53:58.408Z,2.03
2019-01-24T03:56:28.348Z,1.30
2019-01-24T03:58:58.289Z,1.83
2019-01-24T04:01:28.204Z,1.40
2019-01-24T04:03:58.164Z,1.90
2019-01-24T04:06:28.086Z,2.10
2019-01-24T04:08:58.030Z,1.40
2019-01-24T04:11:27.967Z,1.60
2019-01-24T04:13:57.883Z,1.63
2019-01-24T04:16:27.789Z,1.90
2019-01-24T04:18:57.700Z,1.77
2019-01-24T04:21:27.725Z,1.20
2019-01-24T04:23:57.655Z,1.80
2019-01-24T04:26:27.560Z,1.30
2019-01-24T04:28:57.518Z,1.13
2019-01-24T04:31:27.424Z,0.83
2019-01-24T04:33:57.354Z,1.00
2019-01-24T04:36:27.299Z,1.03
2019-01-24T04:38:57.292Z,1.40
2019-01-24T04:41:27.179Z,1.60
2019-01-24T04:43:57.126Z,1.30
2019-01-24T04:46:27.016Z,1.47
2019-01-24T04:48:57.047Z,1.40
2019-01-24T04:51:26.917Z,1.00
2019-01-24T04:53:56.858Z,1.07
2019-01-24T04:56:26.788Z,1.37
2019-01-24T04:58:56.731Z,1.00
2019-01-24T05:01:26.643Z,0.90
2019-01-24T05:03:56.563Z,1.00
2019-01-24T05:06:26.514Z,1.37
2019-01-24T05:08:56.422Z,1.47
2019-01-24T05:11:26.338Z,1.47
2019-01-24T05:13:56.276Z,1.53
2019-01-24T05:16:26.209Z,1.80
2019-01-24T05:18:56.170Z,1.70
2019-01-24T05:21:26.102Z,1.77
2019-01-24T05:23:56.041Z,2.33
2019-01-24T05:26:25.935Z,2.63
2019-01-24T05:28:55.863Z,2.07
2019-01-24T05:31:25.878Z,2.30
2019-01-24T05:33:56.559Z,1.90
2019-01-24T05:36:27.521Z,2.00
2019-01-24T05:38:57.506Z,2.00
2019-01-24T05:41:27.411Z,2.00
2019-01-24T05:43:57.311Z,1.77
2019-01-24T05:46:27.221Z,1.63
2019-01-24T05:48:57.156Z,2.20
2019-01-24T05:51:27.082Z,1.43
2019-01-24T05:53:57.030Z,2.20
2019-01-24T05:56:26.919Z,1.13
2019-01-24T05:58:56.807Z,1.40
2019-01-24T06:01:27.238Z,1.10
2019-01-24T06:03:57.185Z,1.10
2019-01-24T06:06:27.111Z,1.00
2019-01-24T06:08:57.015Z,1.10
2019-01-24T06:11:26.974Z,0.70
2019-01-24T06:13:56.885Z,1.47
2019-01-24T06:16:26.849Z,1.40
2019-01-24T06:18:56.806Z,1.50
2019-01-24T06:21:26.723Z,2.23
2019-01-24T06:23:56.763Z,1.70
2019-01-24T06:26:26.718Z,2.00
2019-01-24T06:28:56.633Z,2.53
2019-01-24T06:31:26.546Z,3.10
2019-01-24T06:33:56.461Z,2.80
2019-01-24T06:36:26.378Z,2.70
2019-01-24T06:38:56.394Z,3.17
2019-01-24T06:41:26.362Z,3.37
2019-01-24T06:43:56.296Z,2.67
2019-01-24T06:46:26.382Z,3.47
2019-01-24T06:48:56.310Z,2.77
2019-01-24T06:51:26.372Z,3.53
2019-01-24T06:53:56.310Z,4.47
2019-01-24T06:56:26.426Z,3.33
2019-01-24T06:58:56.406Z,2.80
2019-01-24T07:01:26.382Z,2.50
2019-01-24T07:03:56.319Z,2.00
2019-01-24T07:06:26.273Z,2.40
2019-01-24T07:08:56.215Z,2.57
2019-01-24T07:11:26.298Z,2.40
2019-01-24T07:13:56.289Z,2.10
2019-01-24T07:16:26.255Z,2.00
2019-01-24T07:18:56.279Z,2.13
2019-01-24T07:21:26.272Z,1.73
2019-01-24T07:23:56.205Z,1.90
2019-01-24T07:26:26.161Z,2.23
2019-01-24T07:28:56.124Z,1.90
2019-01-24T07:31:26.086Z,2.60
2019-01-24T07:33:56.047Z,1.43
2019-01-24T07:36:26.062Z,1.80
2019-01-24T07:38:56.126Z,2.13
2019-01-24T07:41:26.174Z,6.10
2019-01-24T07:43:56.169Z,5.80
2019-01-24T07:46:26.142Z,3.50
2019-01-24T07:48:56.174Z,3.47
2019-01-24T07:51:26.170Z,4.60
2019-01-24T07:53:56.158Z,3.57
2019-01-24T07:56:26.134Z,2.10
2019-01-24T07:58:56.094Z,2.77
2019-01-24T08:01:26.071Z,2.07
2019-01-24T08:03:56.095Z,2.53
2019-01-24T08:06:26.187Z,1.50
2019-01-24T08:08:56.138Z,1.13
2019-01-24T08:11:26.075Z,1.70
2019-01-24T08:13:56.039Z,2.00
2019-01-24T08:16:25.971Z,1.40
2019-01-24T08:18:55.987Z,1.33
2019-01-24T08:21:25.952Z,1.60
2019-01-24T08:23:55.903Z,2.80
2019-01-24T08:26:25.846Z,2.85
2019-01-24T08:28:55.798Z,3.17
2019-01-24T08:31:25.730Z,2.70
2019-01-24T08:33:55.819Z,2.67
2019-01-24T08:36:25.777Z,3.10
2019-01-24T08:38:55.814Z,3.10
2019-01-24T08:41:25.787Z,2.70
2019-01-24T08:43:55.783Z,2.85
2019-01-24T08:46:25.727Z,2.90
2019-01-24T08:48:55.862Z,4.17
2019-01-24T08:51:25.903Z,3.00
2019-01-24T08:53:55.982Z,3.00
2019-01-24T08:56:25.925Z,3.50
2019-01-24T08:58:55.927Z,3.17
2019-01-24T09:01:25.958Z,2.90
2019-01-24T09:03:56.257Z,3.07
2019-01-24T09:06:26.246Z,2.70
2019-01-24T09:08:56.163Z,3.03
2019-01-24T09:11:26.248Z,3.13
2019-01-24T09:13:56.200Z,2.93
2019-01-24T09:16:26.181Z,2.77
2019-01-24T09:18:56.152Z,2.37
2019-01-24T09:21:26.115Z,2.50
2019-01-24T09:23:56.069Z,2.07
2019-01-24T09:26:26.164Z,2.33
2019-01-24T09:28:56.131Z,2.10
2019-01-24T09:31:26.128Z,2.00
2019-01-24T09:33:56.106Z,2.00
2019-01-24T09:36:29.276Z,3.10
2019-01-24T09:38:57.868Z,1.63
2019-01-24T09:41:27.935Z,1.80
2019-01-24T09:43:57.935Z,1.80
2019-01-24T09:46:28.020Z,2.60
2019-01-24T09:48:57.992Z,3.20
2019-01-24T09:51:28.198Z,2.20
2019-01-24T09:53:58.158Z,2.60
2019-01-24T09:56:28.159Z,2.63
2019-01-24T09:58:58.226Z,2.60
2019-01-24T10:01:28.806Z,1.80
2019-01-24T10:03:59.363Z,1.83
2019-01-24T10:06:36.050Z,3.13
2019-01-24T10:09:01.444Z,2.57
2019-01-24T10:11:32.256Z,2.77
2019-01-24T10:14:05.429Z,2.87
2019-01-24T10:16:35.594Z,3.10
2019-01-24T10:19:05.843Z,3.50
2019-01-24T10:21:35.931Z,2.30
2019-01-24T10:24:06.106Z,2.80
2019-01-24T10:26:36.106Z,2.50
2019-01-24T10:29:06.047Z,3.87
2019-01-24T10:31:36.168Z,3.40
2019-01-24T10:34:06.989Z,2.60
2019-01-24T10:36:42.824Z,2.90
2019-01-24T10:39:10.143Z,2.43
2019-01-24T10:41:40.259Z,2.67
2019-01-24T10:44:10.231Z,3.13
2019-01-24T10:46:40.331Z,3.33
2019-01-24T10:49:10.311Z,3.97
2019-01-24T10:51:40.251Z,3.83
2019-01-24T10:54:10.216Z,5.03
2019-01-24T10:56:40.239Z,3.40
2019-01-24T10:59:10.211Z,3.30
2019-01-24T11:01:40.406Z,3.47
2019-01-24T11:04:10.358Z,3.87
2019-01-24T11:06:40.319Z,3.03
2019-01-24T11:09:10.905Z,3.30
2019-01-24T11:11:40.928Z,3.13
2019-01-24T11:14:10.928Z,4.30
2019-01-24T11:16:41.004Z,4.33
2019-01-24T11:19:11.099Z,3.50
2019-01-24T11:21:41.143Z,3.07
2019-01-24T11:24:11.134Z,3.27
2019-01-24T11:26:41.401Z,2.50
2019-01-24T11:29:12.367Z,3.43
2019-01-24T11:31:42.530Z,3.70
2019-01-24T11:34:12.583Z,3.83
2019-01-24T11:36:42.656Z,3.87
2019-01-24T11:39:12.831Z,2.70
2019-01-24T11:41:42.838Z,3.97
2019-01-24T11:44:12.872Z,4.10
2019-01-24T11:46:42.907Z,3.67
2019-01-24T11:49:12.903Z,4.20
2019-01-24T11:51:45.574Z,4.17
2019-01-24T11:54:15.577Z,3.60
2019-01-24T11:56:45.544Z,4.47
2019-01-24T11:59:15.494Z,4.47
2019-01-24T12:01:45.490Z,4.10
2019-01-24T12:04:15.543Z,6.07
2019-01-24T12:06:45.490Z,3.40
2019-01-24T12:09:15.547Z,3.77
2019-01-24T12:11:45.507Z,4.30
2019-01-24T12:14:15.506Z,4.70
2019-01-24T12:16:45.512Z,3.50
2019-01-24T12:19:15.443Z,3.70
2019-01-24T12:21:45.394Z,3.83
2019-01-24T12:24:15.398Z,3.40
2019-01-24T12:26:45.428Z,3.80
2019-01-24T12:29:15.408Z,6.37
2019-01-24T12:31:45.466Z,1.90
2019-01-24T12:34:15.583Z,3.30
2019-01-24T12:36:45.865Z,3.57
2019-01-24T12:39:15.839Z,3.53
2019-01-24T12:41:45.891Z,3.13
2019-01-24T12:44:15.853Z,3.10
2019-01-24T12:46:45.862Z,2.53
2019-01-24T12:49:15.823Z,2.73
2019-01-24T12:51:45.821Z,2.73
2019-01-24T12:54:15.762Z,2.80
2019-01-24T12:56:45.729Z,3.37
2019-01-24T12:59:15.718Z,4.13
2019-01-24T13:01:45.704Z,3.63
2019-01-24T13:04:15.625Z,2.30
2019-01-24T13:06:45.598Z,2.70
2019-01-24T13:09:15.524Z,2.20
2019-01-24T13:11:45.518Z,2.70
2019-01-24T13:14:15.489Z,3.57
2019-01-24T13:16:45.565Z,2.90
2019-01-24T13:19:15.559Z,3.20
2019-01-24T13:21:45.552Z,2.63
2019-01-24T13:24:15.560Z,3.30
2019-01-24T13:26:45.574Z,2.83
2019-01-24T13:29:15.570Z,4.30
2019-01-24T13:31:45.571Z,3.33
2019-01-24T13:34:15.574Z,2.33
2019-01-24T13:36:45.581Z,2.43
2019-01-24T13:39:15.555Z,2.60
2019-01-24T13:41:45.598Z,2.60
2019-01-24T13:44:15.586Z,2.67
2019-01-24T13:46:45.638Z,2.33
2019-01-24T13:49:15.555Z,2.40
2019-01-24T13:51:45.559Z,2.40
2019-01-24T13:54:15.519Z,2.20
2019-01-24T13:56:45.479Z,2.10
2019-01-24T13:59:15.459Z,2.10
2019-01-24T14:01:45.456Z,1.97
2019-01-24T14:04:25.614Z,3.03
2019-01-24T14:07:00.192Z,2.10
2019-01-24T14:09:35.940Z,3.87
2019-01-24T14:12:06.521Z,3.10
2019-01-24T14:14:38.745Z,2.00
2019-01-24T14:17:08.868Z,1.83
2019-01-24T14:19:38.868Z,1.60
2019-01-24T14:22:08.915Z,1.87
2019-01-24T14:24:39.011Z,2.30
2019-01-24T14:27:09.279Z,2.07
2019-01-24T14:29:39.358Z,1.83
2019-01-24T14:32:09.632Z,2.33
2019-01-24T14:34:39.669Z,1.70
2019-01-24T14:37:09.634Z,1.40
2019-01-24T14:39:39.915Z,2.00
2019-01-24T14:42:09.976Z,2.20
2019-01-24T14:44:39.919Z,1.73
2019-01-24T14:47:12.811Z,1.80
2019-01-24T14:49:42.771Z,2.03
2019-01-24T14:52:12.822Z,2.07
2019-01-24T14:54:42.803Z,3.20
2019-01-24T14:57:12.846Z,3.37
2019-01-24T14:59:42.891Z,3.40
2019-01-24T15:02:12.871Z,3.57
2019-01-24T15:04:42.898Z,3.73
2019-01-24T15:07:12.950Z,4.00
2019-01-24T15:09:43.105Z,3.47
2019-01-24T15:12:14.083Z,3.70
2019-01-24T15:14:44.303Z,2.30
2019-01-24T15:17:14.307Z,2.60
2019-01-24T15:19:44.403Z,2.40
2019-01-24T15:22:14.315Z,2.77
2019-01-24T15:24:44.565Z,1.77
2019-01-24T15:27:14.659Z,2.00
2019-01-24T15:29:44.819Z,2.20
2019-01-24T15:32:14.823Z,1.27
2019-01-24T15:34:44.893Z,1.37
2019-01-24T15:37:15.965Z,0.70
2019-01-24T15:39:45.939Z,2.40
2019-01-24T15:42:15.916Z,1.70
2019-01-24T15:44:45.890Z,3.77
2019-01-24T15:47:15.924Z,1.83
2019-01-24T15:49:45.946Z,1.40
2019-01-24T15:52:15.911Z,1.00
2019-01-24T15:54:46.011Z,1.57
2019-01-24T15:57:16.055Z,2.27
2019-01-24T15:59:46.003Z,1.80
2019-01-24T16:02:16.015Z,1.47
2019-01-24T16:04:45.899Z,2.03
2019-01-24T16:07:15.904Z,1.47
2019-01-24T16:09:45.843Z,1.20
2019-01-24T16:12:15.945Z,1.60
2019-01-24T16:14:45.995Z,1.47
2019-01-24T16:17:15.960Z,1.03
2019-01-24T16:19:46.147Z,1.97
2019-01-24T16:22:16.103Z,0.70
2019-01-24T16:24:46.058Z,0.57
2019-01-24T16:27:16.117Z,2.60
2019-01-24T16:29:46.084Z,3.70
2019-01-24T16:32:16.131Z,2.77
2019-01-24T16:34:46.137Z,3.00
2019-01-24T16:37:16.176Z,3.33
2019-01-24T16:39:46.151Z,3.70
2019-01-24T16:42:16.137Z,1.17
2019-01-24T16:44:46.156Z,1.97
2019-01-24T16:47:16.115Z,0.90
2019-01-24T16:49:46.092Z,1.07
2019-01-24T16:52:16.084Z,1.60
2019-01-24T16:54:46.013Z,1.30
2019-01-24T16:57:16.084Z,2.20
2019-01-24T16:59:46.106Z,1.70
2019-01-24T17:02:16.172Z,1.03
2019-01-24T17:04:46.107Z,0.83
2019-01-24T17:07:16.200Z,1.50
2019-01-24T17:09:46.173Z,1.73
2019-01-24T17:12:16.190Z,1.23
2019-01-24T17:14:46.165Z,1.57
2019-01-24T17:17:16.147Z,0.83
2019-01-24T17:19:46.103Z,0.67
2019-01-24T17:22:16.071Z,0.90
2019-01-24T17:24:46.010Z,0.70
2019-01-24T17:27:16.147Z,1.30
2019-01-24T17:29:49.215Z,0.80
2019-01-24T17:32:19.262Z,1.03
2019-01-24T17:34:49.283Z,1.30
2019-01-24T17:37:19.262Z,0.87
2019-01-24T17:39:49.272Z,1.03
2019-01-24T17:42:19.273Z,1.50
2019-01-24T17:44:49.233Z,2.00
2019-01-24T17:47:19.192Z,1.82
2019-01-24T17:49:49.177Z,1.67
2019-01-24T17:52:19.113Z,1.50
2019-01-24T17:54:49.226Z,1.97
2019-01-24T17:57:20.933Z,1.00
2019-01-24T17:59:50.951Z,1.37
2019-01-24T18:02:21.083Z,1.03
2019-01-24T18:04:51.045Z,1.77
2019-01-24T18:07:21.087Z,1.40
2019-01-24T18:09:51.080Z,1.20
2019-01-24T18:12:21.040Z,1.53
2019-01-24T18:14:51.061Z,0.90
2019-01-24T18:17:21.044Z,1.47
2019-01-24T18:19:51.015Z,1.50
2019-01-24T18:22:20.952Z,1.40
2019-01-24T18:24:50.920Z,1.80
2019-01-24T18:27:20.955Z,1.20
2019-01-24T18:29:50.947Z,1.40
2019-01-24T18:32:20.900Z,1.27
2019-01-24T18:34:50.931Z,1.30
2019-01-24T18:37:20.866Z,1.40
2019-01-24T18:39:50.932Z,1.37
2019-01-24T18:42:20.994Z,2.17
2019-01-24T18:44:51.058Z,1.60
2019-01-24T18:47:21.123Z,1.73
2019-01-24T18:49:51.110Z,1.50
2019-01-24T18:52:21.346Z,1.80
2019-01-24T18:54:51.351Z,1.53
2019-01-24T18:57:21.370Z,1.97
2019-01-24T18:59:51.375Z,2.80
2019-01-24T19:02:21.302Z,2.90
2019-01-24T19:04:51.261Z,1.63
2019-01-24T19:07:21.407Z,4.00
2019-01-24T19:09:51.400Z,4.50
2019-01-24T19:12:21.415Z,3.50
2019-01-24T19:14:51.411Z,14.20
2019-01-24T19:17:21.359Z,3.40
2019-01-24T19:19:58.348Z,2.10
2019-01-24T19:22:28.627Z,3.80
2019-01-24T19:24:58.587Z,2.57
2019-01-24T19:27:28.591Z,1.90
2019-01-24T19:29:58.744Z,1.90
2019-01-24T19:32:28.859Z,2.20
2019-01-24T19:34:58.871Z,2.73
2019-01-24T19:37:31.219Z,2.43
2019-01-24T19:40:03.041Z,2.20
2019-01-24T19:42:33.223Z,2.73
2019-01-24T19:45:03.255Z,3.20
2019-01-24T19:47:33.380Z,2.50
2019-01-24T19:50:03.339Z,2.63
2019-01-24T19:52:33.318Z,2.90
2019-01-24T19:55:03.287Z,2.67
2019-01-24T19:57:33.449Z,2.67
2019-01-24T20:00:03.387Z,4.27
2019-01-24T20:02:33.491Z,2.50
2019-01-24T20:05:03.916Z,18.27
2019-01-24T20:07:33.876Z,9.00
2019-01-24T20:10:04.191Z,4.30
2019-01-24T20:12:34.214Z,3.70
2019-01-24T20:15:05.923Z,6.37
2019-01-24T20:17:35.904Z,3.10
2019-01-24T20:20:07.259Z,2.90
2019-01-24T20:22:37.234Z,2.47
2019-01-24T20:25:08.926Z,3.87
2019-01-24T20:27:39.247Z,2.80
2019-01-24T20:30:12.119Z,3.00
2019-01-24T20:32:42.261Z,3.73
2019-01-24T20:35:18.551Z,3.90
2019-01-24T20:37:48.588Z,3.70
2019-01-24T20:40:18.815Z,4.10
2019-01-24T20:42:48.821Z,4.80
2019-01-24T20:45:18.984Z,4.83
2019-01-24T20:47:49.039Z,3.10
2019-01-24T20:50:19.118Z,3.23
2019-01-24T20:52:49.206Z,3.27
2019-01-24T20:55:19.155Z,3.37
2019-01-24T20:57:49.335Z,3.37
2019-01-24T21:00:24.752Z,3.70
2019-01-24T21:02:55.456Z,5.43
2019-01-24T21:05:25.527Z,4.17
2019-01-24T21:07:55.723Z,4.13
2019-01-24T21:10:26.611Z,3.87
2019-01-24T21:12:56.588Z,4.00
2019-01-24T21:15:26.750Z,4.10
2019-01-24T21:17:56.791Z,4.30
2019-01-24T21:20:27.810Z,3.47
2019-01-24T21:22:57.870Z,3.10
2019-01-24T21:25:28.254Z,3.00
2019-01-24T21:27:58.319Z,4.50
2019-01-24T21:30:30.925Z,4.17
2019-01-24T21:33:00.994Z,3.73
2019-01-24T21:35:32.618Z,4.60
2019-01-24T21:38:02.762Z,4.30
2019-01-24T21:40:32.919Z,3.60
2019-01-24T21:43:02.874Z,4.30
2019-01-24T21:45:33.975Z,5.20
2019-01-24T21:48:04.228Z,3.87
2019-01-24T21:50:34.639Z,5.20
2019-01-24T21:53:04.883Z,4.40
2019-01-24T21:55:35.004Z,3.87
2019-01-24T21:58:06.187Z,4.27
2019-01-24T22:00:36.349Z,3.67
2019-01-24T22:03:07.099Z,3.77
2019-01-24T22:05:37.364Z,6.27
2019-01-24T22:08:07.534Z,9.27
2019-01-24T22:10:37.620Z,4.97
2019-01-24T22:13:07.822Z,12.63
2019-01-24T22:15:38.083Z,21.73
2019-01-24T22:18:08.546Z,6.00
2019-01-24T22:20:38.533Z,5.17
2019-01-24T22:23:08.616Z,4.30
2019-01-24T22:25:38.614Z,3.40
2019-01-24T22:28:09.126Z,4.20
2019-01-24T22:30:44.203Z,3.87
2019-01-24T22:33:14.246Z,4.00
2019-01-24T22:35:44.339Z,4.20
2019-01-24T22:38:14.417Z,3.47
2019-01-24T22:40:44.370Z,3.17
2019-01-24T22:43:14.411Z,2.63
2019-01-24T22:45:44.618Z,3.97
2019-01-24T22:48:14.564Z,4.97
2019-01-24T22:50:44.654Z,5.70
2019-01-24T22:53:14.719Z,6.30
2019-01-24T22:55:44.663Z,4.97
2019-01-24T22:58:14.734Z,5.10
2019-01-24T23:01:16.059Z,7.10
2019-01-24T23:03:48.242Z,5.90
2019-01-24T23:06:18.382Z,5.83
2019-01-24T23:08:48.445Z,5.10
2019-01-24T23:11:18.510Z,5.07
2019-01-24T23:13:48.463Z,5.37
2019-01-24T23:16:18.491Z,5.60
2019-01-24T23:18:48.557Z,5.50
2019-01-24T23:21:18.711Z,7.00
2019-01-24T23:23:48.763Z,5.00
2019-01-24T23:26:18.732Z,6.17
2019-01-24T23:28:48.671Z,6.37
2019-01-24T23:31:18.602Z,7.00
2019-01-24T23:33:48.625Z,6.73
2019-01-24T23:36:18.684Z,5.10
2019-01-24T23:38:48.811Z,5.23
2019-01-24T23:41:18.755Z,5.50
2019-01-24T23:43:48.911Z,4.80
2019-01-24T23:46:19.042Z,4.67
2019-01-24T23:48:49.107Z,4.40
2019-01-24T23:51:19.216Z,4.93
2019-01-24T23:53:49.272Z,5.60
2019-01-24T23:56:19.200Z,3.93
2019-01-24T23:58:49.262Z,4.40
